createdAt,value
2023-06-14T00:01:14.853Z,7.33
2023-06-14T00:03:43.977Z,6.77
2023-06-14T00:06:13.539Z,7.23
2023-06-14T00:08:44.010Z,7.10
2023-06-14T00:11:13.184Z,7.60
2023-06-14T00:13:44.196Z,7.07
2023-06-14T00:16:13.506Z,7.50
2023-06-14T00:18:42.923Z,7.50
2023-06-14T00:21:13.458Z,7.40
2023-06-14T00:23:46.611Z,7.87
2023-06-14T00:26:16.063Z,7.20
2023-06-14T00:28:46.859Z,7.53
2023-06-14T00:31:16.420Z,7.27
2023-06-14T00:33:45.965Z,7.33
2023-06-14T00:36:15.600Z,7.60
2023-06-14T00:38:47.261Z,7.67
2023-06-14T00:41:16.917Z,7.83
2023-06-14T00:43:46.437Z,8.10
2023-06-14T00:46:15.955Z,7.47
2023-06-14T00:48:45.537Z,7.83
2023-06-14T00:51:14.852Z,7.60
2023-06-14T00:53:47.987Z,7.27
2023-06-14T00:56:21.780Z,7.90
2023-06-14T00:58:54.300Z,7.77
2023-06-14T01:01:23.507Z,7.50
2023-06-14T01:03:53.240Z,7.60
2023-06-14T01:06:32.046Z,7.50
2023-06-14T01:09:11.877Z,7.90
2023-06-14T01:11:50.195Z,7.73
2023-06-14T01:14:20.118Z,7.77
2023-06-14T01:16:54.585Z,7.87
2023-06-14T01:19:26.704Z,7.93
2023-06-14T01:21:56.206Z,8.20
2023-06-14T01:24:33.064Z,8.37
2023-06-14T01:27:04.752Z,9.00
2023-06-14T01:29:34.608Z,8.23
2023-06-14T01:32:04.014Z,8.33
2023-06-14T01:34:35.707Z,8.43
2023-06-14T01:37:05.246Z,8.27
2023-06-14T01:39:36.668Z,8.20
2023-06-14T01:42:07.652Z,8.13
2023-06-14T01:44:37.715Z,8.20
2023-06-14T01:47:07.540Z,7.90
2023-06-14T01:49:36.586Z,8.23
2023-06-14T01:52:07.203Z,7.83
2023-06-14T01:54:38.986Z,8.33
2023-06-14T01:57:08.497Z,8.20
2023-06-14T01:59:37.515Z,8.20
2023-06-14T02:02:06.732Z,8.47
2023-06-14T02:04:35.954Z,8.00
2023-06-14T02:07:05.138Z,8.30
2023-06-14T02:09:34.141Z,7.63
2023-06-14T02:12:04.559Z,8.23
2023-06-14T02:14:34.545Z,8.40
2023-06-14T02:17:03.671Z,8.13
2023-06-14T02:19:32.728Z,8.07
2023-06-14T02:22:01.577Z,8.83
2023-06-14T02:24:30.987Z,8.43
2023-06-14T02:27:02.141Z,8.23
2023-06-14T02:29:32.949Z,8.20
2023-06-14T02:32:02.046Z,8.67
2023-06-14T02:34:31.084Z,8.40
2023-06-14T02:37:00.157Z,8.63
2023-06-14T02:39:29.386Z,8.30
2023-06-14T02:41:58.235Z,8.40
2023-06-14T02:44:28.664Z,8.40
2023-06-14T02:46:59.858Z,8.43
2023-06-14T02:49:29.201Z,8.23
2023-06-14T02:51:58.237Z,8.17
2023-06-14T02:54:27.236Z,9.00
2023-06-14T02:56:56.229Z,8.70
2023-06-14T02:59:26.176Z,8.30
2023-06-14T03:01:58.325Z,7.50
2023-06-14T03:04:28.026Z,8.50
2023-06-14T03:06:57.371Z,8.07
2023-06-14T03:09:26.525Z,7.80
2023-06-14T03:11:55.608Z,8.17
2023-06-14T03:14:24.860Z,8.20
2023-06-14T03:16:57.821Z,7.90
2023-06-14T03:19:28.711Z,8.23
2023-06-14T03:21:59.191Z,7.77
2023-06-14T03:24:30.081Z,8.07
2023-06-14T03:27:00.935Z,8.07
2023-06-14T03:29:32.324Z,8.83
2023-06-14T03:32:03.241Z,8.30
2023-06-14T03:34:42.603Z,7.83
2023-06-14T03:37:17.460Z,7.93
2023-06-14T03:39:48.706Z,8.20
2023-06-14T03:42:24.625Z,8.00
2023-06-14T03:44:53.716Z,8.40
2023-06-14T03:47:24.665Z,8.43
2023-06-14T03:49:55.171Z,8.50
2023-06-14T03:52:24.566Z,8.27
2023-06-14T03:57:26.053Z,8.43
2023-06-14T03:59:56.745Z,8.53
2023-06-14T04:02:26.258Z,9.23
2023-06-14T04:04:56.950Z,8.17
2023-06-14T04:07:26.076Z,8.63
2023-06-14T04:09:55.660Z,8.60
2023-06-14T04:12:24.885Z,8.87
2023-06-14T04:14:58.416Z,8.23
2023-06-14T04:17:33.762Z,8.00
2023-06-14T04:20:07.316Z,8.00
2023-06-14T04:22:37.381Z,8.63
2023-06-14T04:25:09.153Z,8.63
2023-06-14T04:27:38.595Z,8.97
2023-06-14T04:30:09.720Z,8.73
2023-06-14T04:32:45.118Z,8.27
2023-06-14T04:35:17.271Z,8.87
2023-06-14T04:37:48.869Z,8.30
2023-06-14T04:40:17.984Z,8.47
2023-06-14T04:42:47.253Z,8.40
2023-06-14T04:45:18.672Z,8.63
2023-06-14T04:47:48.434Z,8.90
2023-06-14T04:50:21.628Z,8.77
2023-06-14T04:52:52.413Z,8.90
2023-06-14T04:55:22.047Z,8.87
2023-06-14T04:57:54.106Z,7.93
2023-06-14T05:00:24.451Z,8.73
2023-06-14T05:02:54.405Z,8.40
2023-06-14T05:05:26.036Z,8.40
2023-06-14T05:07:55.074Z,8.80
2023-06-14T05:10:24.768Z,8.80
2023-06-14T05:12:54.160Z,8.67
2023-06-14T05:15:26.307Z,8.90
2023-06-14T05:17:57.143Z,9.20
2023-06-14T05:20:27.840Z,8.90
2023-06-14T05:22:57.852Z,9.07
2023-06-14T05:25:26.804Z,8.80
2023-06-14T05:27:55.774Z,8.13
2023-06-14T05:30:25.014Z,7.40
2023-06-14T05:32:56.181Z,8.90
2023-06-14T05:35:27.819Z,8.73
2023-06-14T05:37:58.170Z,8.40
2023-06-14T05:40:27.166Z,8.27
2023-06-14T05:42:56.171Z,8.20
2023-06-14T05:45:25.306Z,8.30
2023-06-14T05:47:55.617Z,8.00
2023-06-14T05:50:24.671Z,10.27
2023-06-14T05:52:53.843Z,9.50
2023-06-14T05:55:24.711Z,8.53
2023-06-14T05:57:53.914Z,7.90
2023-06-14T06:00:23.656Z,7.80
2023-06-14T06:02:52.763Z,8.10
2023-06-14T06:05:22.185Z,7.73
2023-06-14T06:07:51.501Z,7.80
2023-06-14T06:10:20.668Z,7.00
2023-06-14T06:12:53.166Z,7.20
2023-06-14T06:15:22.637Z,7.00
2023-06-14T06:17:56.254Z,7.40
2023-06-14T06:20:31.376Z,6.93
2023-06-14T06:23:02.736Z,6.83
2023-06-14T06:25:33.256Z,6.27
2023-06-14T06:28:03.667Z,7.57
2023-06-14T06:30:32.742Z,7.07
2023-06-14T06:33:02.140Z,6.90
2023-06-14T06:35:33.998Z,7.00
2023-06-14T06:38:03.527Z,7.07
2023-06-14T06:40:32.868Z,6.70
2023-06-14T06:43:04.161Z,6.30
2023-06-14T06:45:38.643Z,7.13
2023-06-14T06:48:08.110Z,6.27
2023-06-14T06:50:37.511Z,6.53
2023-06-14T06:53:07.833Z,6.03
2023-06-14T06:55:37.033Z,6.33
2023-06-14T06:58:07.633Z,5.97
2023-06-14T07:00:36.818Z,5.77
2023-06-14T07:03:05.985Z,5.77
2023-06-14T07:05:35.242Z,6.03
2023-06-14T07:08:04.626Z,5.83
2023-06-14T07:10:33.731Z,5.70
2023-06-14T07:13:02.788Z,5.73
2023-06-14T07:15:33.185Z,5.63
2023-06-14T07:18:02.287Z,5.80
2023-06-14T07:20:32.114Z,5.27
2023-06-14T07:23:01.358Z,5.50
2023-06-14T07:25:30.535Z,5.47
2023-06-14T07:28:00.015Z,4.87
2023-06-14T07:30:31.020Z,5.13
2023-06-14T07:33:01.575Z,4.73
2023-06-14T07:35:30.882Z,4.63
2023-06-14T07:38:00.186Z,4.10
2023-06-14T07:40:29.428Z,4.50
2023-06-14T07:42:58.577Z,4.70
2023-06-14T07:45:27.612Z,3.90
2023-06-14T07:47:57.675Z,4.10
2023-06-14T07:50:28.671Z,3.57
2023-06-14T07:52:57.757Z,2.90
2023-06-14T07:55:29.265Z,3.40
2023-06-14T07:58:01.635Z,3.47
2023-06-14T08:00:30.829Z,3.33
2023-06-14T08:03:01.658Z,2.97
2023-06-14T08:05:32.551Z,2.90
2023-06-14T08:08:01.785Z,3.20
2023-06-14T08:10:31.170Z,3.10
2023-06-14T08:13:00.230Z,2.53
2023-06-14T08:15:29.437Z,3.10
2023-06-14T08:18:00.705Z,3.20
2023-06-14T08:20:31.467Z,2.90
2023-06-14T08:23:02.709Z,2.90
2023-06-14T08:25:31.762Z,3.10
2023-06-14T08:28:01.154Z,2.70
2023-06-14T08:30:30.214Z,2.80
2023-06-14T08:33:11.030Z,2.40
2023-06-14T08:35:44.737Z,2.90
2023-06-14T08:38:15.285Z,4.57
2023-06-14T08:40:44.769Z,5.50
2023-06-14T08:43:13.896Z,3.70
2023-06-14T08:45:42.948Z,4.00
2023-06-14T08:48:12.692Z,4.73
2023-06-14T08:50:44.124Z,4.17
2023-06-14T08:53:21.633Z,2.90
2023-06-14T08:55:51.541Z,2.83
2023-06-14T08:58:20.778Z,2.73
2023-06-14T09:00:51.074Z,2.80
2023-06-14T09:03:21.772Z,2.90
2023-06-14T09:05:51.038Z,2.80
2023-06-14T09:08:23.326Z,2.50
2023-06-14T09:10:52.737Z,2.90
2023-06-14T09:13:21.958Z,2.90
2023-06-14T09:15:52.200Z,2.50
2023-06-14T09:18:22.302Z,2.50
2023-06-14T09:20:51.496Z,2.30
2023-06-14T09:23:24.297Z,2.60
2023-06-14T09:25:53.650Z,2.50
2023-06-14T09:28:28.762Z,2.50
2023-06-14T09:30:58.261Z,2.67
2023-06-14T09:33:28.031Z,2.70
2023-06-14T09:35:57.318Z,2.60
2023-06-14T09:38:28.717Z,2.90
2023-06-14T09:40:59.922Z,3.00
2023-06-14T09:43:30.334Z,2.50
2023-06-14T09:45:59.356Z,2.60
2023-06-14T09:48:28.883Z,2.43
2023-06-14T09:51:01.646Z,2.70
2023-06-14T09:53:34.798Z,2.40
2023-06-14T09:56:05.056Z,2.63
2023-06-14T09:58:38.730Z,2.70
2023-06-14T10:01:10.894Z,2.30
2023-06-14T10:04:01.594Z,2.23
2023-06-14T10:06:31.863Z,2.37
2023-06-14T10:09:03.308Z,2.50
2023-06-14T10:11:32.497Z,2.43
2023-06-14T10:14:02.047Z,2.30
2023-06-14T10:16:34.387Z,2.50
2023-06-14T10:19:09.699Z,2.50
2023-06-14T10:21:49.604Z,2.83
2023-06-14T10:24:22.052Z,2.10
2023-06-14T10:26:58.259Z,2.27
2023-06-14T10:29:33.070Z,2.20
2023-06-14T10:32:04.821Z,2.57
2023-06-14T10:34:34.252Z,2.37
2023-06-14T10:37:05.638Z,2.23
2023-06-14T10:39:42.085Z,2.40
2023-06-14T10:42:12.056Z,2.47
2023-06-14T10:44:43.365Z,2.30
2023-06-14T10:47:24.571Z,2.23
2023-06-14T10:49:56.175Z,2.30
2023-06-14T10:52:29.444Z,2.13
2023-06-14T10:55:06.930Z,2.60
2023-06-14T11:00:23.189Z,2.00
2023-06-14T11:03:10.370Z,2.30
2023-06-14T11:05:53.253Z,2.10
2023-06-14T11:09:13.978Z,2.10
2023-06-14T11:14:14.111Z,2.33
2023-06-14T11:16:43.145Z,2.20
2023-06-14T11:19:12.763Z,2.00
2023-06-14T11:21:43.067Z,2.33
2023-06-14T11:24:13.332Z,2.30
2023-06-14T11:26:44.384Z,2.40
2023-06-14T11:29:13.438Z,2.67
2023-06-14T11:31:46.674Z,2.57
2023-06-14T11:34:17.623Z,2.40
2023-06-14T11:36:48.669Z,2.30
2023-06-14T11:39:18.014Z,2.37
2023-06-14T11:41:48.501Z,2.20
2023-06-14T11:44:17.477Z,2.40
2023-06-14T11:46:47.175Z,2.40
2023-06-14T11:49:16.204Z,2.30
2023-06-14T11:51:45.751Z,2.40
2023-06-14T11:54:14.841Z,2.70
2023-06-14T11:56:44.640Z,2.50
2023-06-14T11:59:16.269Z,2.50
2023-06-14T12:01:46.468Z,2.40
2023-06-14T12:04:16.034Z,2.47
2023-06-14T12:06:45.592Z,2.20
2023-06-14T12:09:18.476Z,2.10
2023-06-14T12:11:47.769Z,2.83
2023-06-14T12:14:18.429Z,2.50
2023-06-14T12:16:47.669Z,2.50
2023-06-14T12:19:18.017Z,2.40
2023-06-14T12:21:50.462Z,2.60
2023-06-14T12:24:19.925Z,2.50
2023-06-14T12:26:49.257Z,2.30
2023-06-14T12:29:21.789Z,2.30
2023-06-14T12:31:50.941Z,2.70
2023-06-14T12:34:20.209Z,2.73
2023-06-14T12:36:49.329Z,2.50
2023-06-14T12:39:19.124Z,2.60
2023-06-14T12:41:48.397Z,2.53
2023-06-14T12:44:19.214Z,2.40
2023-06-14T12:46:48.739Z,2.53
2023-06-14T12:49:17.978Z,2.60
2023-06-14T12:51:47.230Z,2.50
2023-06-14T12:54:22.903Z,2.50
2023-06-14T12:56:57.650Z,2.70
2023-06-14T12:59:34.098Z,2.60
2023-06-14T13:02:17.479Z,2.80
2023-06-14T13:04:46.721Z,2.90
2023-06-14T13:07:16.155Z,2.73
2023-06-14T13:09:46.069Z,3.10
2023-06-14T13:12:15.102Z,2.80
2023-06-14T13:14:45.729Z,2.67
2023-06-14T13:17:15.048Z,2.70
2023-06-14T13:19:44.380Z,3.00
2023-06-14T13:22:13.546Z,2.87
2023-06-14T13:24:42.824Z,2.70
2023-06-14T13:27:12.355Z,2.60
2023-06-14T13:29:41.350Z,2.77
2023-06-14T13:32:11.927Z,2.83
2023-06-14T13:34:41.191Z,2.93
2023-06-14T13:37:10.467Z,2.67
2023-06-14T13:39:39.732Z,2.73
2023-06-14T13:42:09.594Z,2.80
2023-06-14T13:44:38.825Z,2.80
2023-06-14T13:47:08.985Z,3.10
2023-06-14T13:49:39.480Z,2.80
2023-06-14T13:52:09.649Z,2.93
2023-06-14T13:54:39.205Z,2.90
2023-06-14T13:57:08.827Z,2.57
2023-06-14T13:59:38.235Z,2.80
2023-06-14T14:02:08.182Z,2.50
2023-06-14T14:04:39.733Z,2.73
2023-06-14T14:07:09.308Z,2.47
2023-06-14T14:09:40.512Z,2.30
2023-06-14T14:12:09.907Z,2.30
2023-06-14T14:14:39.246Z,2.37
2023-06-14T14:17:08.757Z,2.17
2023-06-14T14:19:39.338Z,2.47
2023-06-14T14:22:08.642Z,2.40
2023-06-14T14:24:38.204Z,2.70
2023-06-14T14:27:08.880Z,2.63
2023-06-14T14:29:40.879Z,2.30
2023-06-14T14:32:14.708Z,2.80
2023-06-14T14:34:45.978Z,2.50
2023-06-14T14:37:16.298Z,2.60
2023-06-14T14:39:46.952Z,2.93
2023-06-14T14:42:16.169Z,3.03
2023-06-14T14:44:45.747Z,2.90
2023-06-14T14:47:15.002Z,3.07
2023-06-14T14:49:45.599Z,2.97
2023-06-14T14:52:23.350Z,2.70
2023-06-14T14:54:54.272Z,2.87
2023-06-14T14:57:24.100Z,2.70
2023-06-14T14:59:53.791Z,3.00
2023-06-14T15:02:24.692Z,2.80
2023-06-14T15:04:55.448Z,2.97
2023-06-14T15:07:24.692Z,3.10
2023-06-14T15:09:54.035Z,3.00
2023-06-14T15:12:24.244Z,3.00
2023-06-14T15:14:54.625Z,3.00
2023-06-14T15:17:25.627Z,3.10
2023-06-14T15:19:56.489Z,2.80
2023-06-14T15:22:25.728Z,2.97
2023-06-14T15:24:55.175Z,2.80
2023-06-14T15:27:24.204Z,2.83
2023-06-14T15:29:53.513Z,2.77
2023-06-14T15:32:25.882Z,2.73
2023-06-14T15:34:56.338Z,2.70
2023-06-14T15:37:25.622Z,3.17
2023-06-14T15:39:55.117Z,2.70
2023-06-14T15:42:24.235Z,2.80
2023-06-14T15:44:53.430Z,2.70
2023-06-14T15:47:22.610Z,3.00
2023-06-14T15:49:52.141Z,3.07
2023-06-14T15:52:22.657Z,2.80
2023-06-14T15:54:52.048Z,2.80
2023-06-14T15:57:21.167Z,2.90
2023-06-14T15:59:50.240Z,3.03
2023-06-14T16:02:19.460Z,3.10
2023-06-14T16:04:49.655Z,3.00
2023-06-14T16:07:19.810Z,3.03
2023-06-14T16:09:50.153Z,3.23
2023-06-14T16:12:22.146Z,3.30
2023-06-14T16:14:51.207Z,3.37
2023-06-14T16:17:20.285Z,3.33
2023-06-14T16:19:49.597Z,3.13
2023-06-14T16:22:18.590Z,3.33
2023-06-14T16:24:47.603Z,3.13
2023-06-14T16:27:19.698Z,3.23
2023-06-14T16:29:49.116Z,2.93
2023-06-14T16:32:19.040Z,3.23
2023-06-14T16:34:48.238Z,2.73
2023-06-14T16:37:17.424Z,3.50
2023-06-14T16:39:46.390Z,2.90
2023-06-14T16:42:16.988Z,2.80
2023-06-14T16:44:46.407Z,2.80
2023-06-14T16:47:15.998Z,3.07
2023-06-14T16:49:45.019Z,2.73
2023-06-14T16:52:14.115Z,2.70
2023-06-14T16:54:43.179Z,2.93
2023-06-14T16:57:12.581Z,2.83
2023-06-14T16:59:43.349Z,2.97
2023-06-14T17:02:12.475Z,3.20
2023-06-14T17:04:41.571Z,3.00
2023-06-14T17:07:10.894Z,2.80
2023-06-14T17:09:39.932Z,2.90
2023-06-14T17:12:09.483Z,3.00
2023-06-14T17:14:38.856Z,3.57
2023-06-14T17:17:09.550Z,2.97
2023-06-14T17:19:38.716Z,3.07
2023-06-14T17:22:08.202Z,3.10
2023-06-14T17:24:37.462Z,2.93
2023-06-14T17:27:07.425Z,2.90
2023-06-14T17:29:36.638Z,3.43
2023-06-14T17:32:06.693Z,2.70
2023-06-14T17:34:37.678Z,3.07
2023-06-14T17:37:07.330Z,2.80
2023-06-14T17:39:37.386Z,2.90
2023-06-14T17:42:07.552Z,2.90
2023-06-14T17:44:36.772Z,3.00
2023-06-14T17:47:06.437Z,2.90
2023-06-14T17:49:37.121Z,3.00
2023-06-14T17:52:06.907Z,2.57
2023-06-14T17:54:36.114Z,2.83
2023-06-14T17:57:05.804Z,2.90
2023-06-14T17:59:34.951Z,3.03
2023-06-14T18:02:04.115Z,2.87
2023-06-14T18:04:33.206Z,3.03
2023-06-14T18:07:03.804Z,3.00
2023-06-14T18:09:32.947Z,3.40
2023-06-14T18:12:02.020Z,3.13
2023-06-14T18:14:31.117Z,3.03
2023-06-14T18:17:00.452Z,3.07
2023-06-14T18:19:29.990Z,3.10
2023-06-14T18:21:59.066Z,3.10
2023-06-14T18:24:29.827Z,3.20
2023-06-14T18:27:00.173Z,3.10
2023-06-14T18:29:29.429Z,3.60
2023-06-14T18:31:58.928Z,3.00
2023-06-14T18:34:29.043Z,3.17
2023-06-14T18:36:58.556Z,3.30
2023-06-14T18:39:28.976Z,3.40
2023-06-14T18:41:58.023Z,3.37
2023-06-14T18:44:27.096Z,3.10
2023-06-14T18:46:56.379Z,3.30
2023-06-14T18:49:25.482Z,3.30
2023-06-14T18:51:54.439Z,3.20
2023-06-14T18:54:23.512Z,3.23
2023-06-14T18:56:54.328Z,3.27
2023-06-14T18:59:23.646Z,3.30
2023-06-14T19:01:52.665Z,3.10
2023-06-14T19:04:21.771Z,2.90
2023-06-14T19:06:51.016Z,3.17
2023-06-14T19:09:20.766Z,3.17
2023-06-14T19:11:49.763Z,3.20
2023-06-14T19:14:20.532Z,3.10
2023-06-14T19:16:51.298Z,3.27
2023-06-14T19:19:21.579Z,3.27
2023-06-14T19:21:51.123Z,3.30
2023-06-14T19:24:20.424Z,3.40
2023-06-14T19:26:50.904Z,3.10
2023-06-14T19:29:21.222Z,3.40
2023-06-14T19:31:50.374Z,3.50
2023-06-14T19:34:19.496Z,3.67
2023-06-14T19:36:48.651Z,3.40
2023-06-14T19:39:17.737Z,3.80
2023-06-14T19:41:46.918Z,3.30
2023-06-14T19:44:16.013Z,3.70
2023-06-14T19:46:46.328Z,3.43
2023-06-14T19:49:15.647Z,3.13
2023-06-14T19:51:44.735Z,3.57
2023-06-14T19:54:13.612Z,3.30
2023-06-14T19:56:42.629Z,3.37
2023-06-14T19:59:11.562Z,3.50
2023-06-14T20:01:40.622Z,3.80
2023-06-14T20:04:11.116Z,3.90
2023-06-14T20:06:40.310Z,3.77
2023-06-14T20:09:14.553Z,3.70
2023-06-14T20:11:43.677Z,3.50
2023-06-14T20:14:12.635Z,3.40
2023-06-14T20:16:41.797Z,3.57
2023-06-14T20:19:12.329Z,3.50
2023-06-14T20:21:41.485Z,3.70
2023-06-14T20:24:10.849Z,3.50
2023-06-14T20:26:39.877Z,3.40
2023-06-14T20:29:08.806Z,3.60
2023-06-14T20:31:37.951Z,3.53
2023-06-14T20:34:07.022Z,3.63
2023-06-14T20:36:37.864Z,3.70
2023-06-14T20:39:07.485Z,3.90
2023-06-14T20:41:36.470Z,3.90
2023-06-14T20:44:07.596Z,4.17
2023-06-14T20:46:38.493Z,4.03
2023-06-14T20:49:09.009Z,4.23
2023-06-14T20:51:39.721Z,3.93
2023-06-14T20:54:08.832Z,3.83
2023-06-14T20:56:38.352Z,4.07
2023-06-14T20:59:07.340Z,4.03
2023-06-14T21:01:37.113Z,3.90
2023-06-14T21:04:06.464Z,4.20
2023-06-14T21:06:39.568Z,4.03
2023-06-14T21:09:10.269Z,4.27
2023-06-14T21:11:39.342Z,4.00
2023-06-14T21:14:09.284Z,3.90
2023-06-14T21:16:38.540Z,3.90
2023-06-14T21:19:07.888Z,4.13
2023-06-14T21:21:37.076Z,4.07
2023-06-14T21:24:07.020Z,3.80
2023-06-14T21:26:38.563Z,3.90
2023-06-14T21:29:07.791Z,3.97
2023-06-14T21:31:36.934Z,4.17
2023-06-14T21:34:06.291Z,4.50
2023-06-14T21:36:36.637Z,4.17
2023-06-14T21:39:05.812Z,4.07
2023-06-14T21:41:38.758Z,3.90
2023-06-14T21:44:09.228Z,4.50
2023-06-14T21:46:38.307Z,4.27
2023-06-14T21:49:07.466Z,4.10
2023-06-14T21:51:36.590Z,4.40
2023-06-14T21:54:05.852Z,4.50
2023-06-14T21:56:35.297Z,4.10
2023-06-14T21:59:04.525Z,4.30
2023-06-14T22:01:34.994Z,4.43
2023-06-14T22:04:04.165Z,4.43
2023-06-14T22:06:33.405Z,4.33
2023-06-14T22:09:02.494Z,4.50
2023-06-14T22:11:34.940Z,4.27
2023-06-14T22:14:03.964Z,4.70
2023-06-14T22:16:36.325Z,4.30
2023-06-14T22:19:05.924Z,4.83
2023-06-14T22:21:36.347Z,4.67
2023-06-14T22:24:06.958Z,4.07
2023-06-14T22:26:48.372Z,4.43
2023-06-14T22:29:18.264Z,4.70
2023-06-14T22:31:50.180Z,4.40
2023-06-14T22:34:19.360Z,4.63
2023-06-14T22:36:49.318Z,4.90
2023-06-14T22:39:18.259Z,4.27
2023-06-14T22:41:48.822Z,4.70
2023-06-14T22:44:19.120Z,4.90
2023-06-14T22:46:49.622Z,4.47
2023-06-14T22:49:18.925Z,5.03
2023-06-14T22:51:57.104Z,4.80
2023-06-14T22:54:26.764Z,5.17
2023-06-14T22:56:55.789Z,5.27
2023-06-14T22:59:25.120Z,5.27
2023-06-14T23:01:56.114Z,5.10
2023-06-14T23:04:25.074Z,5.03
2023-06-14T23:06:54.412Z,5.03
2023-06-14T23:09:24.013Z,5.17
2023-06-14T23:11:53.313Z,5.20
2023-06-14T23:14:23.945Z,5.27
2023-06-14T23:16:54.522Z,5.20
2023-06-14T23:19:26.639Z,5.33
2023-06-14T23:21:59.935Z,5.17
2023-06-14T23:24:29.145Z,5.53
2023-06-14T23:26:59.715Z,5.43
2023-06-14T23:29:30.432Z,5.33
2023-06-14T23:32:00.919Z,5.07
2023-06-14T23:34:31.232Z,5.40
2023-06-14T23:37:00.494Z,5.60
2023-06-14T23:39:29.734Z,5.80
2023-06-14T23:41:59.204Z,5.50
2023-06-14T23:44:37.596Z,5.70
2023-06-14T23:47:08.660Z,5.00
2023-06-14T23:49:38.907Z,5.60
2023-06-14T23:52:08.743Z,5.50
2023-06-14T23:54:37.803Z,5.87
2023-06-14T23:57:08.684Z,5.60
2023-06-14T23:59:39.455Z,5.77
